DEKT2: Red River, Dekalb, TX

Data processed at Tue May 21 2019 22:30


All information presented herein is the property of the government of the United States of America and may be revised or deleted at any time without prior notice.
Dissemination of this information without the expressed written consent of the Public Affairs Office, Tulsa District U.S. Army Corps of Engineers is strictly prohibited.
These data are gathered electronically and, as presented, have not undergone any form of quality control. These data are not guaranteed to be valid or correct.
Go to home page.
Go to station list.
Go to home page.

Upstream stations:

Downstream station:
Previous Day
Next Day
Current Day
    
SHEF ID:       DEKT2     Red River near De Kalb, TX
STATION TYPE:  
Regulating: Stage =    23.70, Flow =    55781

               PRECIP     STAGE  STAGE(2)  RIV-FLOW  BAT-LOAD
                   in        ft        ft       cfs      volt
              Ccp-Rev   Ccp-Rev   Ccp-Rev   Ccp-Rev   Ccp-Rev
(US/Central)
05/21 00:00      ----     22.28      ----     48218     13.13
05/21 01:00      ----     22.32      ----     48424     13.13
05/21 02:00      ----     22.31      ----     48373     13.13
05/21 03:00      ----     22.32      ----     48424     13.05
05/21 04:00      ----     22.36      ----     48631     13.05
05/21 05:00      ----     22.32      ----     48424     13.05
05/21 06:00      ----     22.35      ----     48579     13.05
05/21 07:00      ----     22.37      ----     48683     13.05
05/21 08:00      ----     22.39      ----     48786     13.05
05/21 09:00      ----     22.38      ----     48735     13.60
05/21 10:00      ----     22.38      ----     48735     13.44
05/21 11:00      ----     22.39      ----     48786     13.37
05/21 12:00      ----     22.41      ----     48890     13.44
05/21 13:00      ----     22.48      ----     49253     13.29
05/21 14:00      ----     22.51      ----     49409     13.29
05/21 15:00      ----     22.52      ----     49461     13.29
05/21 16:00      ----     22.54      ----     49566     13.60
05/21 17:00      ----     22.58      ----     49775     13.53
05/21 18:00      ----     22.59      ----     49827     13.60
05/21 19:00      ----     22.62      ----     49984     13.37
05/21 20:00      ----     22.64      ----     50088     13.29
05/21 21:00      ----     22.67      ----     50246     13.21
05/21 22:00      ----     22.71      ----     50456     13.13
05/21 23:00      ----      ----      ----      ----      ----